createdAt,value
2023-03-12T00:01:39.929Z,19.25
2023-03-12T00:03:50.834Z,17.52
2023-03-12T00:06:03.925Z,17.15
2023-03-12T00:08:17.773Z,17.25
2023-03-12T00:10:25.556Z,16.25
2023-03-12T00:12:33.309Z,19.23
2023-03-12T00:14:41.232Z,17.40
2023-03-12T00:16:49.136Z,20.92
2023-03-12T00:18:59.515Z,19.90
2023-03-12T00:21:08.478Z,17.70
2023-03-12T00:23:16.316Z,17.75
2023-03-12T00:25:24.421Z,18.75
2023-03-12T00:27:32.337Z,21.73
2023-03-12T00:29:40.314Z,18.58
2023-03-12T00:31:48.473Z,18.77
2023-03-12T00:34:01.518Z,19.90
2023-03-12T00:36:11.279Z,17.15
2023-03-12T00:38:22.811Z,16.90
2023-03-12T00:40:30.729Z,16.92
2023-03-12T00:42:38.832Z,17.15
2023-03-12T00:44:46.931Z,17.40
2023-03-12T00:46:54.821Z,16.77
2023-03-12T00:49:05.489Z,16.58
2023-03-12T00:51:13.666Z,17.55
2023-03-12T00:53:21.546Z,17.15
2023-03-12T00:55:29.655Z,18.98
2023-03-12T00:57:37.764Z,20.13
2023-03-12T00:59:45.537Z,15.93
2023-03-12T01:01:54.147Z,21.13
2023-03-12T01:04:02.078Z,21.38
2023-03-12T01:06:12.593Z,17.58
2023-03-12T01:08:20.370Z,16.05
2023-03-12T01:10:28.499Z,19.67
2023-03-12T01:12:37.171Z,15.95
2023-03-12T01:14:45.238Z,18.83
2023-03-12T01:16:53.540Z,17.45
2023-03-12T01:19:03.630Z,14.85
2023-03-12T01:21:14.497Z,14.57
2023-03-12T01:23:22.246Z,16.02
2023-03-12T01:25:30.201Z,13.95
2023-03-12T01:27:38.286Z,15.05
2023-03-12T01:29:46.392Z,19.17
2023-03-12T01:31:54.488Z,16.02
2023-03-12T01:34:08.385Z,14.68
2023-03-12T01:36:25.277Z,19.00
2023-03-12T01:38:33.198Z,15.18
2023-03-12T01:40:41.515Z,14.98
2023-03-12T01:42:55.618Z,17.73
2023-03-12T01:45:07.567Z,13.82
2023-03-12T01:47:15.339Z,14.52
2023-03-12T01:49:27.045Z,14.40
2023-03-12T01:51:42.046Z,15.68
2023-03-12T01:53:52.686Z,18.70
2023-03-12T01:56:03.354Z,18.13
2023-03-12T01:58:12.742Z,18.67
2023-03-12T02:00:25.298Z,16.08
2023-03-12T02:02:35.672Z,17.27
2023-03-12T02:04:46.253Z,14.43
2023-03-12T02:07:02.850Z,17.17
2023-03-12T02:09:12.707Z,18.20
2023-03-12T02:11:21.072Z,14.95
2023-03-12T02:13:29.030Z,17.30
2023-03-12T02:15:38.433Z,15.00
2023-03-12T02:17:46.434Z,18.33
2023-03-12T02:20:08.045Z,14.63
2023-03-12T02:22:19.443Z,15.23
2023-03-12T02:24:33.878Z,16.92
2023-03-12T02:26:44.575Z,17.10
2023-03-12T02:28:54.559Z,14.05
2023-03-12T02:31:07.342Z,18.25
2023-03-12T02:33:16.226Z,15.85
2023-03-12T02:35:24.440Z,14.90
2023-03-12T02:37:32.340Z,16.85
2023-03-12T02:39:42.124Z,14.43
2023-03-12T02:41:55.907Z,14.10
2023-03-12T02:44:07.676Z,16.65
2023-03-12T02:46:18.198Z,16.35
2023-03-12T02:48:26.034Z,16.38
2023-03-12T02:50:47.262Z,14.85
2023-03-12T02:52:55.739Z,14.88
2023-03-12T02:55:03.816Z,15.57
2023-03-12T02:57:14.376Z,17.23
2023-03-12T02:59:26.059Z,17.20
2023-03-12T03:01:36.821Z,14.77
2023-03-12T03:03:45.813Z,15.95
2023-03-12T03:05:54.075Z,14.73
2023-03-12T03:08:01.960Z,14.63
2023-03-12T03:10:12.307Z,14.93
2023-03-12T03:12:22.975Z,14.98
2023-03-12T03:14:30.878Z,18.02
2023-03-12T03:16:39.389Z,15.82
2023-03-12T03:18:47.360Z,17.45
2023-03-12T03:20:59.046Z,15.10
2023-03-12T03:23:07.226Z,22.48
2023-03-12T03:25:15.148Z,16.98
2023-03-12T03:27:25.638Z,17.83
2023-03-12T03:29:34.518Z,15.43
2023-03-12T03:31:43.563Z,15.82
2023-03-12T03:33:52.643Z,17.30
2023-03-12T03:36:02.173Z,15.15
2023-03-12T03:38:12.716Z,14.52
2023-03-12T03:40:21.191Z,14.60
2023-03-12T03:42:31.952Z,16.50
2023-03-12T03:44:42.369Z,16.25
2023-03-12T03:46:50.558Z,17.15
2023-03-12T03:48:58.520Z,16.30
2023-03-12T03:51:09.022Z,17.52
2023-03-12T03:53:19.544Z,16.55
2023-03-12T03:55:27.462Z,16.17
2023-03-12T03:57:38.270Z,18.00
2023-03-12T03:59:47.229Z,14.80
2023-03-12T04:01:55.989Z,15.25
2023-03-12T04:04:04.397Z,15.18
2023-03-12T04:06:14.455Z,15.23
2023-03-12T04:08:23.121Z,14.25
2023-03-12T04:10:31.290Z,15.60
2023-03-12T04:12:42.219Z,14.75
2023-03-12T04:14:50.558Z,14.10
2023-03-12T04:16:58.354Z,15.90
2023-03-12T04:19:06.591Z,19.83
2023-03-12T04:21:16.655Z,16.17
2023-03-12T04:23:25.598Z,17.48
2023-03-12T04:25:34.321Z,14.18
2023-03-12T04:27:44.882Z,16.27
2023-03-12T04:29:52.719Z,13.68
2023-03-12T04:32:00.806Z,14.82
2023-03-12T04:34:09.658Z,13.70
2023-03-12T04:36:17.848Z,13.85
2023-03-12T04:38:30.327Z,18.05
2023-03-12T04:40:39.148Z,16.52
2023-03-12T04:42:50.814Z,12.85
2023-03-12T04:45:00.125Z,12.70
2023-03-12T04:47:08.174Z,15.48
2023-03-12T04:49:16.257Z,16.52
2023-03-12T04:51:24.845Z,14.55
2023-03-12T04:53:33.563Z,13.50
2023-03-12T04:55:41.703Z,13.07
2023-03-12T04:57:52.687Z,16.33
2023-03-12T05:00:00.540Z,12.23
2023-03-12T05:02:08.888Z,13.02
2023-03-12T05:04:17.103Z,14.32
2023-03-12T05:06:27.136Z,14.98
2023-03-12T05:08:36.940Z,11.98
2023-03-12T05:10:48.907Z,12.00
2023-03-12T05:13:00.895Z,13.05
2023-03-12T05:15:10.168Z,11.95
2023-03-12T05:17:18.464Z,11.63
2023-03-12T05:19:26.409Z,11.30
2023-03-12T05:21:34.341Z,12.85
2023-03-12T05:23:43.259Z,12.30
2023-03-12T05:25:52.719Z,12.18
2023-03-12T05:28:03.378Z,11.52
2023-03-12T05:30:12.888Z,11.95
2023-03-12T05:32:21.104Z,12.68
2023-03-12T05:34:30.044Z,13.60
2023-03-12T05:36:40.342Z,12.40
2023-03-12T05:38:49.084Z,11.73
2023-03-12T05:41:01.015Z,13.45
2023-03-12T05:43:13.937Z,11.85
2023-03-12T05:45:22.464Z,10.25
2023-03-12T05:47:34.134Z,11.82
2023-03-12T05:49:42.065Z,11.00
2023-03-12T05:51:50.622Z,12.52
2023-03-12T05:54:00.611Z,10.95
2023-03-12T05:56:10.745Z,14.63
2023-03-12T05:58:21.236Z,12.35
2023-03-12T06:00:30.035Z,12.75
2023-03-12T06:02:38.846Z,13.65
2023-03-12T06:04:46.635Z,14.60
2023-03-12T06:06:54.642Z,12.40
2023-03-12T06:09:04.085Z,13.30
2023-03-12T06:11:12.433Z,12.57
2023-03-12T06:13:23.183Z,13.82
2023-03-12T06:15:31.220Z,14.43
2023-03-12T06:17:39.086Z,12.55
2023-03-12T06:19:53.322Z,14.15
2023-03-12T06:22:01.970Z,15.02
2023-03-12T06:24:11.018Z,11.70
2023-03-12T06:26:25.712Z,13.75
2023-03-12T06:28:36.458Z,15.82
2023-03-12T06:30:44.391Z,12.20
2023-03-12T06:32:52.438Z,13.25
2023-03-12T06:35:00.934Z,13.23
2023-03-12T06:37:09.098Z,12.27
2023-03-12T06:39:16.946Z,11.63
2023-03-12T06:41:24.814Z,11.32
2023-03-12T06:43:37.654Z,13.85
2023-03-12T06:45:45.500Z,13.90
2023-03-12T06:47:53.357Z,13.38
2023-03-12T06:50:01.261Z,12.35
2023-03-12T06:52:09.607Z,15.20
2023-03-12T06:54:17.401Z,13.02
2023-03-12T06:56:25.575Z,13.02
2023-03-12T06:58:36.049Z,14.73
2023-03-12T07:00:44.123Z,11.60
2023-03-12T07:02:51.944Z,13.23
2023-03-12T07:05:00.003Z,12.95
2023-03-12T07:07:08.869Z,13.30
2023-03-12T07:09:16.682Z,13.20
2023-03-12T07:11:24.696Z,11.88
2023-03-12T07:13:35.334Z,11.60
2023-03-12T07:15:45.277Z,13.68
2023-03-12T07:17:53.178Z,12.82
2023-03-12T07:20:00.979Z,12.10
2023-03-12T07:22:09.417Z,13.93
2023-03-12T07:24:17.512Z,13.55
2023-03-12T07:26:25.274Z,12.50
2023-03-12T07:28:36.217Z,13.60
2023-03-12T07:30:50.305Z,15.30
2023-03-12T07:32:58.224Z,15.70
2023-03-12T07:35:06.169Z,12.15
2023-03-12T07:37:26.945Z,12.95
2023-03-12T07:39:34.882Z,14.05
2023-03-12T07:41:42.691Z,14.98
2023-03-12T07:43:54.206Z,16.27
2023-03-12T07:46:03.218Z,14.63
2023-03-12T07:48:13.745Z,18.40
2023-03-12T07:50:22.404Z,14.07
2023-03-12T07:52:31.180Z,15.68
2023-03-12T07:54:39.547Z,16.60
2023-03-12T07:56:47.466Z,15.98
2023-03-12T07:58:58.563Z,13.93
2023-03-12T08:01:06.905Z,12.32
2023-03-12T08:03:15.018Z,15.02
2023-03-12T08:05:24.973Z,13.80
2023-03-12T08:07:35.312Z,13.50
2023-03-12T08:09:43.448Z,16.90
2023-03-12T08:11:51.684Z,21.15
2023-03-12T08:14:02.196Z,12.63
2023-03-12T08:16:10.655Z,13.70
2023-03-12T08:18:18.562Z,12.98
2023-03-12T08:20:26.442Z,14.07
2023-03-12T08:22:34.608Z,13.18
2023-03-12T08:24:42.868Z,14.20
2023-03-12T08:26:51.199Z,15.57
2023-03-12T08:29:03.575Z,16.30
2023-03-12T08:31:12.303Z,16.35
2023-03-12T08:33:20.452Z,16.05
2023-03-12T08:35:28.349Z,15.35
2023-03-12T08:37:36.207Z,14.30
2023-03-12T08:39:44.097Z,15.05
2023-03-12T08:41:55.338Z,15.05
2023-03-12T08:44:05.830Z,17.67
2023-03-12T08:46:13.826Z,16.23
2023-03-12T08:48:21.655Z,16.92
2023-03-12T08:50:31.293Z,17.23
2023-03-12T08:52:39.208Z,16.75
2023-03-12T08:54:47.228Z,17.35
2023-03-12T08:56:55.648Z,16.63
2023-03-12T08:59:06.470Z,16.02
2023-03-12T09:01:16.229Z,15.55
2023-03-12T09:03:24.322Z,15.85
2023-03-12T09:05:32.376Z,16.70
2023-03-12T09:07:40.433Z,17.05
2023-03-12T09:09:48.521Z,17.10
2023-03-12T09:11:56.707Z,17.20
2023-03-12T09:16:35.291Z,15.48
2023-03-12T09:18:43.158Z,16.88
2023-03-12T09:20:51.037Z,17.83
2023-03-12T09:22:59.121Z,18.70
2023-03-12T09:25:07.684Z,17.83
2023-03-12T09:27:15.669Z,18.83
2023-03-12T09:29:26.753Z,17.80
2023-03-12T09:31:34.808Z,17.08
2023-03-12T09:33:42.873Z,21.95
2023-03-12T09:35:59.316Z,19.63
2023-03-12T09:38:07.680Z,18.92
2023-03-12T09:40:20.649Z,16.83
2023-03-12T09:42:33.784Z,18.10
2023-03-12T09:44:48.051Z,19.48
2023-03-12T09:46:59.048Z,19.58
2023-03-12T09:49:14.248Z,20.13
2023-03-12T09:51:27.173Z,17.25
2023-03-12T09:53:41.223Z,19.55
2023-03-12T09:55:52.772Z,19.65
2023-03-12T09:58:00.692Z,20.73
2023-03-12T10:00:17.559Z,23.05
2023-03-12T10:02:52.146Z,19.60
2023-03-12T10:05:03.932Z,20.35
2023-03-12T10:07:18.909Z,19.65
2023-03-12T10:09:49.922Z,20.50
2023-03-12T10:12:06.392Z,19.67
2023-03-12T10:14:29.811Z,18.67
2023-03-12T10:16:52.971Z,18.50
2023-03-12T10:19:15.102Z,16.48
2023-03-12T10:21:28.733Z,16.98
2023-03-12T10:23:47.658Z,15.40
2023-03-12T10:26:01.042Z,12.30
2023-03-12T10:28:18.399Z,10.85
2023-03-12T10:30:29.718Z,10.63
2023-03-12T10:32:45.255Z,10.40
2023-03-12T10:34:55.902Z,9.18
2023-03-12T10:37:15.049Z,8.10
2023-03-12T10:39:23.531Z,8.82
2023-03-12T10:41:34.977Z,9.07
2023-03-12T10:43:43.390Z,12.57
2023-03-12T10:46:02.505Z,12.13
2023-03-12T10:48:20.688Z,11.50
2023-03-12T10:50:30.897Z,10.75
2023-03-12T10:52:38.774Z,13.68
2023-03-12T10:54:48.090Z,15.52
2023-03-12T10:56:56.154Z,14.63
2023-03-12T10:59:04.919Z,15.60
2023-03-12T11:01:23.059Z,15.13
2023-03-12T11:03:34.551Z,6.80
2023-03-12T11:05:51.570Z,5.22
2023-03-12T11:08:01.996Z,13.98
2023-03-12T11:10:28.058Z,14.30
2023-03-12T11:12:37.981Z,11.57
2023-03-12T11:14:49.469Z,8.27
2023-03-12T11:16:58.869Z,6.00
2023-03-12T11:19:10.199Z,7.93
2023-03-12T11:21:20.882Z,7.82
2023-03-12T11:23:32.267Z,5.82
2023-03-12T11:25:40.430Z,5.75
2023-03-12T11:27:54.419Z,6.10
2023-03-12T11:30:03.422Z,5.70
2023-03-12T11:32:20.131Z,5.72
2023-03-12T11:34:33.287Z,4.35
2023-03-12T11:36:53.699Z,6.43
2023-03-12T11:39:10.055Z,3.03
2023-03-12T11:41:34.179Z,4.50
2023-03-12T11:43:58.562Z,2.58
2023-03-12T11:46:23.089Z,2.45
2023-03-12T11:48:41.308Z,1.33
2023-03-12T11:51:12.900Z,0.93
2023-03-12T11:53:55.676Z,1.25
2023-03-12T11:56:28.277Z,1.45
2023-03-12T11:58:59.155Z,0.73
2023-03-12T12:01:15.317Z,4.00
2023-03-12T12:03:47.170Z,2.70
2023-03-12T12:06:05.345Z,2.15
2023-03-12T12:08:31.417Z,0.77
2023-03-12T12:10:48.747Z,0.95
2023-03-12T12:12:59.219Z,0.80
2023-03-12T12:15:18.294Z,1.25
2023-03-12T12:17:40.743Z,2.78
2023-03-12T12:20:09.662Z,1.48
2023-03-12T12:22:32.593Z,2.33
2023-03-12T12:24:59.904Z,1.42
2023-03-12T12:27:20.435Z,1.05
2023-03-12T12:29:38.760Z,2.22
2023-03-12T12:31:51.817Z,1.05
2023-03-12T12:34:24.881Z,0.98
2023-03-12T12:36:36.790Z,1.33
2023-03-12T12:38:52.615Z,1.55
2023-03-12T12:41:06.745Z,1.45
2023-03-12T12:43:28.227Z,3.13
2023-03-12T12:45:36.454Z,0.98
2023-03-12T12:47:50.337Z,2.35
2023-03-12T12:50:01.151Z,1.35
2023-03-12T12:52:14.495Z,4.35
2023-03-12T12:54:33.945Z,2.92
2023-03-12T12:56:47.409Z,1.00
2023-03-12T12:59:03.876Z,1.52
2023-03-12T13:01:13.394Z,2.05
2023-03-12T13:03:24.946Z,1.40
2023-03-12T13:05:57.467Z,1.73
2023-03-12T13:08:08.869Z,3.25
2023-03-12T13:10:53.162Z,1.67
2023-03-12T13:13:13.118Z,3.47
2023-03-12T13:15:40.320Z,2.10
2023-03-12T13:18:11.879Z,1.65
2023-03-12T13:20:23.382Z,4.68
2023-03-12T13:22:52.832Z,2.08
2023-03-12T13:25:10.640Z,2.13
2023-03-12T13:27:27.292Z,4.72
2023-03-12T13:29:42.923Z,1.45
2023-03-12T13:31:51.088Z,1.60
2023-03-12T13:34:01.676Z,2.80
2023-03-12T13:36:27.185Z,1.95
2023-03-12T13:38:40.299Z,2.58
2023-03-12T13:41:07.633Z,1.65
2023-03-12T13:43:20.042Z,1.25
2023-03-12T13:45:32.039Z,1.65
2023-03-12T13:47:45.764Z,2.85
2023-03-12T13:49:58.112Z,1.90
2023-03-12T13:52:20.816Z,1.63
2023-03-12T13:54:32.684Z,1.98
2023-03-12T13:56:40.929Z,1.15
2023-03-12T13:58:58.692Z,1.70
2023-03-12T14:01:10.484Z,2.08
2023-03-12T14:03:23.147Z,1.70
2023-03-12T14:05:32.754Z,2.80
2023-03-12T14:08:05.795Z,3.08
2023-03-12T14:10:24.847Z,1.60
2023-03-12T14:12:40.203Z,1.88
2023-03-12T14:15:06.214Z,1.70
2023-03-12T14:17:24.280Z,1.00
2023-03-12T14:19:35.577Z,1.67
2023-03-12T14:21:46.273Z,1.65
2023-03-12T14:23:57.905Z,2.33
2023-03-12T14:26:08.178Z,2.38
2023-03-12T14:28:20.152Z,1.35
2023-03-12T14:30:39.010Z,2.70
2023-03-12T14:32:49.863Z,1.42
2023-03-12T14:35:05.716Z,2.30
2023-03-12T14:37:19.206Z,1.23
2023-03-12T14:39:33.142Z,2.65
2023-03-12T14:41:48.099Z,1.55
2023-03-12T14:43:57.330Z,0.80
2023-03-12T14:46:16.220Z,3.17
2023-03-12T14:48:25.396Z,2.38
2023-03-12T14:50:41.030Z,2.38
2023-03-12T14:52:49.267Z,2.25
2023-03-12T14:54:59.766Z,1.00
2023-03-12T14:57:07.972Z,1.17
2023-03-12T14:59:28.564Z,1.05
2023-03-12T15:01:40.886Z,1.00
2023-03-12T15:03:51.544Z,2.03
2023-03-12T15:06:02.614Z,1.38
2023-03-12T15:08:10.784Z,3.53
2023-03-12T15:10:27.048Z,1.33
2023-03-12T15:12:38.205Z,2.58
2023-03-12T15:14:46.299Z,2.17
2023-03-12T15:16:59.423Z,1.77
2023-03-12T15:19:08.542Z,1.48
2023-03-12T15:21:16.600Z,1.80
2023-03-12T15:23:26.161Z,3.08
2023-03-12T15:25:36.875Z,2.13
2023-03-12T15:27:44.940Z,1.73
2023-03-12T15:29:53.093Z,1.77
2023-03-12T15:32:03.815Z,2.28
2023-03-12T15:34:14.797Z,1.67
2023-03-12T15:36:30.969Z,2.47
2023-03-12T15:38:40.543Z,2.85
2023-03-12T15:40:54.023Z,2.03
2023-03-12T15:43:07.713Z,4.88
2023-03-12T15:45:22.291Z,2.58
2023-03-12T15:47:36.489Z,2.95
2023-03-12T15:49:44.712Z,4.45
2023-03-12T15:52:02.607Z,2.22
2023-03-12T15:54:28.969Z,3.97
2023-03-12T15:56:38.780Z,4.10
2023-03-12T15:58:46.652Z,4.10
2023-03-12T16:00:55.289Z,6.30
2023-03-12T16:03:08.179Z,3.90
2023-03-12T16:05:16.300Z,4.57
2023-03-12T16:07:24.025Z,1.85
2023-03-12T16:09:34.839Z,2.63
2023-03-12T16:11:43.105Z,3.50
2023-03-12T16:13:53.765Z,4.82
2023-03-12T16:16:02.539Z,5.65
2023-03-12T16:18:18.667Z,4.63
2023-03-12T16:20:26.522Z,6.35
2023-03-12T16:22:35.440Z,3.92
2023-03-12T16:24:43.277Z,2.20
2023-03-12T16:26:54.988Z,2.65
2023-03-12T16:29:03.133Z,3.55
2023-03-12T16:31:14.208Z,2.72
2023-03-12T16:33:26.906Z,4.22
2023-03-12T16:35:35.460Z,3.63
2023-03-12T16:37:43.430Z,3.42
2023-03-12T16:39:51.404Z,2.88
2023-03-12T16:42:01.944Z,2.05
2023-03-12T16:44:12.849Z,4.07
2023-03-12T16:46:23.649Z,2.40
2023-03-12T16:48:34.289Z,2.47
2023-03-12T16:50:42.157Z,2.72
2023-03-12T16:52:51.192Z,3.35
2023-03-12T16:54:59.035Z,2.55
2023-03-12T16:57:07.106Z,3.08
2023-03-12T16:59:25.082Z,5.82
2023-03-12T17:01:33.087Z,2.95
2023-03-12T17:03:49.163Z,6.85
2023-03-12T17:05:57.534Z,8.40
2023-03-12T17:08:05.578Z,4.13
2023-03-12T17:10:17.376Z,4.32
2023-03-12T17:12:31.545Z,5.13
2023-03-12T17:14:40.018Z,5.50
2023-03-12T17:16:48.248Z,3.55
2023-03-12T17:18:59.623Z,5.03
2023-03-12T17:21:07.772Z,2.10
2023-03-12T17:23:16.414Z,6.30
2023-03-12T17:25:27.071Z,4.18
2023-03-12T17:27:34.926Z,5.47
2023-03-12T17:29:44.954Z,6.25
2023-03-12T17:31:53.030Z,2.72
2023-03-12T17:34:04.088Z,5.00
2023-03-12T17:36:12.681Z,3.70
2023-03-12T17:38:20.648Z,4.93
2023-03-12T17:40:28.901Z,4.10
2023-03-12T17:42:37.451Z,3.55
2023-03-12T17:44:46.489Z,3.75
2023-03-12T17:46:59.614Z,5.40
2023-03-12T17:49:10.962Z,4.57
2023-03-12T17:51:25.778Z,4.65
2023-03-12T17:53:34.958Z,4.20
2023-03-12T17:55:43.393Z,4.97
2023-03-12T17:57:51.197Z,8.18
2023-03-12T17:59:59.139Z,7.03
2023-03-12T18:02:07.495Z,4.68
2023-03-12T18:04:18.330Z,5.90
2023-03-12T18:06:26.256Z,6.10
2023-03-12T18:08:34.565Z,3.33
2023-03-12T18:10:42.514Z,5.88
2023-03-12T18:12:50.435Z,6.85
2023-03-12T18:14:58.522Z,5.95
2023-03-12T18:17:06.415Z,7.75
2023-03-12T18:19:14.339Z,6.13
2023-03-12T18:21:25.177Z,6.00
2023-03-12T18:23:33.394Z,9.30
2023-03-12T18:25:41.481Z,6.85
2023-03-12T18:27:49.439Z,7.05
2023-03-12T18:29:57.439Z,6.68
2023-03-12T18:32:05.320Z,5.75
2023-03-12T18:34:13.304Z,6.95
2023-03-12T18:36:21.229Z,8.13
2023-03-12T18:38:31.783Z,11.35
2023-03-12T18:40:39.987Z,7.40
2023-03-12T18:42:47.889Z,5.80
2023-03-12T18:44:55.888Z,7.53
2023-03-12T18:47:03.764Z,5.13
2023-03-12T18:49:12.518Z,5.10
2023-03-12T18:51:20.582Z,3.80
2023-03-12T18:53:33.219Z,3.83
2023-03-12T18:55:41.479Z,4.60
2023-03-12T18:57:49.696Z,4.72
2023-03-12T18:59:57.612Z,5.10
2023-03-12T19:02:05.580Z,5.00
2023-03-12T19:04:17.637Z,4.57
2023-03-12T19:06:28.304Z,4.47
2023-03-12T19:08:39.937Z,6.90
2023-03-12T19:10:48.003Z,6.03
2023-03-12T19:12:59.110Z,5.70
2023-03-12T19:15:14.667Z,5.20
2023-03-12T19:17:26.260Z,5.28
2023-03-12T19:19:34.136Z,4.25
2023-03-12T19:21:42.843Z,5.80
2023-03-12T19:23:53.691Z,4.78
2023-03-12T19:26:01.696Z,5.80
2023-03-12T19:28:09.794Z,6.07
2023-03-12T19:30:19.816Z,6.25
2023-03-12T19:32:36.780Z,4.15
2023-03-12T19:34:52.333Z,6.15
2023-03-12T19:37:00.407Z,6.78
2023-03-12T19:39:21.076Z,4.30
2023-03-12T19:41:29.629Z,3.70
2023-03-12T19:43:37.862Z,5.65
2023-03-12T19:45:46.025Z,5.70
2023-03-12T19:47:54.568Z,7.43
2023-03-12T19:50:02.475Z,6.38
2023-03-12T19:52:10.427Z,6.85
2023-03-12T19:54:20.968Z,6.10
2023-03-12T19:56:29.234Z,5.47
2023-03-12T19:58:37.242Z,6.97
2023-03-12T20:00:45.977Z,5.10
2023-03-12T20:02:54.335Z,7.75
2023-03-12T20:05:02.282Z,5.55
2023-03-12T20:07:12.636Z,6.65
2023-03-12T20:09:23.486Z,8.93
2023-03-12T20:11:31.607Z,5.50
2023-03-12T20:13:40.688Z,5.75
2023-03-12T20:15:48.714Z,5.90
2023-03-12T20:17:58.685Z,5.68
2023-03-12T20:20:09.096Z,5.53
2023-03-12T20:22:17.192Z,8.00
2023-03-12T20:24:27.762Z,5.85
2023-03-12T20:26:36.203Z,5.68
2023-03-12T20:28:44.510Z,6.43
2023-03-12T20:30:52.856Z,6.03
2023-03-12T20:33:00.998Z,5.47
2023-03-12T20:35:09.939Z,10.50
2023-03-12T20:37:19.562Z,6.97
2023-03-12T20:39:30.050Z,10.70
2023-03-12T20:41:37.931Z,4.90
2023-03-12T20:43:47.069Z,6.72
2023-03-12T20:45:55.606Z,5.95
2023-03-12T20:48:04.087Z,4.90
2023-03-12T20:50:13.872Z,5.75
2023-03-12T20:52:22.082Z,4.38
2023-03-12T20:54:32.928Z,8.95
2023-03-12T20:56:43.780Z,6.65
2023-03-12T20:58:52.451Z,9.25
2023-03-12T21:01:02.886Z,6.43
2023-03-12T21:03:13.444Z,7.70
2023-03-12T21:05:23.922Z,8.85
2023-03-12T21:07:34.147Z,6.97
2023-03-12T21:09:44.718Z,5.20
2023-03-12T21:11:52.820Z,5.63
2023-03-12T21:14:00.692Z,5.75
2023-03-12T21:16:09.063Z,5.15
2023-03-12T21:18:17.531Z,6.00
2023-03-12T21:20:25.824Z,7.68
2023-03-12T21:22:33.909Z,6.32
2023-03-12T21:24:44.527Z,6.70
2023-03-12T21:26:52.318Z,9.40
2023-03-12T21:29:00.749Z,12.05
2023-03-12T21:31:10.308Z,9.02
2023-03-12T21:33:18.190Z,5.68
2023-03-12T21:35:26.997Z,8.50
2023-03-12T21:37:34.841Z,10.90
2023-03-12T21:39:46.496Z,4.47
2023-03-12T21:41:54.517Z,6.82
2023-03-12T21:44:04.676Z,7.15
2023-03-12T21:46:14.622Z,9.68
2023-03-12T21:48:22.450Z,5.47
2023-03-12T21:50:30.606Z,10.32
2023-03-12T21:52:42.982Z,7.90
2023-03-12T21:54:53.861Z,10.52
2023-03-12T21:57:02.930Z,8.80
2023-03-12T21:59:11.192Z,9.05
2023-03-12T22:01:21.234Z,6.15
2023-03-12T22:03:29.478Z,6.68
2023-03-12T22:05:37.386Z,6.68
2023-03-12T22:07:45.219Z,5.47
2023-03-12T22:09:55.712Z,9.00
2023-03-12T22:12:03.668Z,12.50
2023-03-12T22:14:21.548Z,8.35
2023-03-12T22:16:30.388Z,9.25
2023-03-12T22:18:41.628Z,8.10
2023-03-12T22:20:53.731Z,9.60
2023-03-12T22:23:01.549Z,7.55
2023-03-12T22:25:12.600Z,8.95
2023-03-12T22:27:20.793Z,9.65
2023-03-12T22:29:28.622Z,12.63
2023-03-12T22:31:36.854Z,6.60
2023-03-12T22:33:44.688Z,9.68
2023-03-12T22:35:52.577Z,7.35
2023-03-12T22:38:00.639Z,12.23
2023-03-12T22:40:13.708Z,9.18
2023-03-12T22:42:21.556Z,9.95
2023-03-12T22:44:29.510Z,10.93
2023-03-12T22:46:37.863Z,6.90
2023-03-12T22:48:46.174Z,7.35
2023-03-12T22:50:56.240Z,7.10
2023-03-12T22:53:04.212Z,9.10
2023-03-12T22:55:15.659Z,6.18
2023-03-12T22:57:23.690Z,10.80
2023-03-12T22:59:31.596Z,9.75
2023-03-12T23:01:39.691Z,9.02
2023-03-12T23:03:48.895Z,7.32
2023-03-12T23:05:57.206Z,5.55
2023-03-12T23:08:05.841Z,7.95
2023-03-12T23:10:16.448Z,8.38
2023-03-12T23:12:24.165Z,7.82
2023-03-12T23:14:31.948Z,9.05
2023-03-12T23:16:39.851Z,8.48
2023-03-12T23:18:48.492Z,5.90
2023-03-12T23:21:02.049Z,7.35
2023-03-12T23:23:09.944Z,8.95
2023-03-12T23:25:20.745Z,8.10
2023-03-12T23:27:36.502Z,9.48
2023-03-12T23:29:45.182Z,6.95
2023-03-12T23:31:53.102Z,12.13
2023-03-12T23:34:01.533Z,6.85
2023-03-12T23:36:11.581Z,7.32
2023-03-12T23:38:19.541Z,8.43
2023-03-12T23:40:30.247Z,6.88
2023-03-12T23:42:38.212Z,5.50
2023-03-12T23:44:46.517Z,13.20
2023-03-12T23:46:54.316Z,8.90
2023-03-12T23:49:03.133Z,7.25
2023-03-12T23:51:12.776Z,6.47
2023-03-12T23:53:20.670Z,7.28
2023-03-12T23:55:31.127Z,8.05
2023-03-12T23:57:39.325Z,10.77
2023-03-12T23:59:47.677Z,7.10
